sensor_id;sensor_type;location;lat;lon;timestamp;temperature;humidity
20732;DHT22;10527;52.124;5.196;2023-07-08T00:01:36;22.40;99.90
20732;DHT22;10527;52.124;5.196;2023-07-08T00:04:03;22.40;99.90
20732;DHT22;10527;52.124;5.196;2023-07-08T00:06:31;22.40;99.90
20732;DHT22;10527;52.124;5.196;2023-07-08T00:08:58;22.30;99.90
20732;DHT22;10527;52.124;5.196;2023-07-08T00:11:25;22.30;99.90
20732;DHT22;10527;52.124;5.196;2023-07-08T00:13:54;22.20;99.90
20732;DHT22;10527;52.124;5.196;2023-07-08T00:16:23;22.10;99.90
20732;DHT22;10527;52.124;5.196;2023-07-08T00:18:50;22.10;99.90
20732;DHT22;10527;52.124;5.196;2023-07-08T00:21:17;22.10;99.90
20732;DHT22;10527;52.124;5.196;2023-07-08T00:24:04;21.90;99.90
20732;DHT22;10527;52.124;5.196;2023-07-08T00:26:34;22.00;99.90
20732;DHT22;10527;52.124;5.196;2023-07-08T00:29:01;21.90;99.90
20732;DHT22;10527;52.124;5.196;2023-07-08T00:31:30;21.80;99.90
20732;DHT22;10527;52.124;5.196;2023-07-08T00:33:59;21.80;99.90
20732;DHT22;10527;52.124;5.196;2023-07-08T00:36:28;21.80;99.90
20732;DHT22;10527;52.124;5.196;2023-07-08T00:39:14;21.70;99.90
20732;DHT22;10527;52.124;5.196;2023-07-08T00:41:42;21.70;99.90
20732;DHT22;10527;52.124;5.196;2023-07-08T00:44:11;21.60;99.90
20732;DHT22;10527;52.124;5.196;2023-07-08T00:46:56;21.70;99.90
20732;DHT22;10527;52.124;5.196;2023-07-08T00:52:29;21.50;99.90
20732;DHT22;10527;52.124;5.196;2023-07-08T00:55:03;21.40;99.90
20732;DHT22;10527;52.124;5.196;2023-07-08T00:57:36;21.40;99.90
20732;DHT22;10527;52.124;5.196;2023-07-08T01:00:07;21.40;99.90
20732;DHT22;10527;52.124;5.196;2023-07-08T01:02:41;21.40;99.90
20732;DHT22;10527;52.124;5.196;2023-07-08T01:05:22;21.40;99.90
20732;DHT22;10527;52.124;5.196;2023-07-08T01:07:56;21.40;99.90
20732;DHT22;10527;52.124;5.196;2023-07-08T01:10:34;21.40;99.90
20732;DHT22;10527;52.124;5.196;2023-07-08T01:13:07;21.40;99.90
20732;DHT22;10527;52.124;5.196;2023-07-08T01:15:41;21.30;99.90
20732;DHT22;10527;52.124;5.196;2023-07-08T01:18:14;21.20;99.90
20732;DHT22;10527;52.124;5.196;2023-07-08T01:20:45;21.30;99.90
20732;DHT22;10527;52.124;5.196;2023-07-08T01:23:14;21.20;99.90
20732;DHT22;10527;52.124;5.196;2023-07-08T01:25:42;21.20;99.90
20732;DHT22;10527;52.124;5.196;2023-07-08T01:28:10;21.10;99.90
20732;DHT22;10527;52.124;5.196;2023-07-08T01:30:37;21.10;99.90
20732;DHT22;10527;52.124;5.196;2023-07-08T01:33:19;21.00;99.90
20732;DHT22;10527;52.124;5.196;2023-07-08T01:35:48;21.00;99.90
20732;DHT22;10527;52.124;5.196;2023-07-08T01:38:22;21.00;99.90
20732;DHT22;10527;52.124;5.196;2023-07-08T01:40:54;20.90;99.90
20732;DHT22;10527;52.124;5.196;2023-07-08T01:43:23;20.80;99.90
20732;DHT22;10527;52.124;5.196;2023-07-08T01:45:51;20.80;99.90
20732;DHT22;10527;52.124;5.196;2023-07-08T01:48:22;20.80;99.90
20732;DHT22;10527;52.124;5.196;2023-07-08T01:56:01;20.70;99.90
20732;DHT22;10527;52.124;5.196;2023-07-08T01:58:30;20.70;99.90
20732;DHT22;10527;52.124;5.196;2023-07-08T02:00:57;20.60;99.90
20732;DHT22;10527;52.124;5.196;2023-07-08T02:03:26;20.60;99.90
20732;DHT22;10527;52.124;5.196;2023-07-08T02:05:53;20.60;99.90
20732;DHT22;10527;52.124;5.196;2023-07-08T02:08:21;20.60;99.90
20732;DHT22;10527;52.124;5.196;2023-07-08T02:10:54;20.50;99.90
20732;DHT22;10527;52.124;5.196;2023-07-08T02:13:23;20.50;99.90
20732;DHT22;10527;52.124;5.196;2023-07-08T02:15:52;20.40;99.90
20732;DHT22;10527;52.124;5.196;2023-07-08T02:18:18;20.40;99.90
20732;DHT22;10527;52.124;5.196;2023-07-08T02:20:46;20.40;99.90
20732;DHT22;10527;52.124;5.196;2023-07-08T02:23:14;20.40;99.90
20732;DHT22;10527;52.124;5.196;2023-07-08T02:25:41;20.30;99.90
20732;DHT22;10527;52.124;5.196;2023-07-08T02:28:17;20.20;99.90
20732;DHT22;10527;52.124;5.196;2023-07-08T02:30:43;20.30;99.90
20732;DHT22;10527;52.124;5.196;2023-07-08T02:33:13;20.20;99.90
20732;DHT22;10527;52.124;5.196;2023-07-08T02:35:44;20.20;99.90
20732;DHT22;10527;52.124;5.196;2023-07-08T02:38:14;20.20;99.90
20732;DHT22;10527;52.124;5.196;2023-07-08T02:40:42;20.10;99.90
20732;DHT22;10527;52.124;5.196;2023-07-08T02:43:09;20.20;99.90
20732;DHT22;10527;52.124;5.196;2023-07-08T02:45:36;20.10;99.90
20732;DHT22;10527;52.124;5.196;2023-07-08T02:48:03;20.10;99.90
20732;DHT22;10527;52.124;5.196;2023-07-08T02:50:30;20.10;99.90
20732;DHT22;10527;52.124;5.196;2023-07-08T02:52:57;20.10;99.90
20732;DHT22;10527;52.124;5.196;2023-07-08T02:55:24;20.00;99.90
20732;DHT22;10527;52.124;5.196;2023-07-08T02:57:51;19.90;99.90
20732;DHT22;10527;52.124;5.196;2023-07-08T03:00:18;19.90;99.90
20732;DHT22;10527;52.124;5.196;2023-07-08T03:02:46;19.80;99.90
20732;DHT22;10527;52.124;5.196;2023-07-08T03:05:13;19.80;99.90
20732;DHT22;10527;52.124;5.196;2023-07-08T03:07:40;19.80;99.90
20732;DHT22;10527;52.124;5.196;2023-07-08T03:10:07;19.80;99.90
20732;DHT22;10527;52.124;5.196;2023-07-08T03:12:34;19.80;99.90
20732;DHT22;10527;52.124;5.196;2023-07-08T03:15:02;19.80;99.90
20732;DHT22;10527;52.124;5.196;2023-07-08T03:17:29;19.80;99.90
20732;DHT22;10527;52.124;5.196;2023-07-08T03:19:56;19.70;99.90
20732;DHT22;10527;52.124;5.196;2023-07-08T03:22:23;19.70;99.90
20732;DHT22;10527;52.124;5.196;2023-07-08T03:24:50;19.60;99.90
20732;DHT22;10527;52.124;5.196;2023-07-08T03:27:17;19.60;99.90
20732;DHT22;10527;52.124;5.196;2023-07-08T03:29:44;19.60;99.90
20732;DHT22;10527;52.124;5.196;2023-07-08T03:32:11;19.60;99.90
20732;DHT22;10527;52.124;5.196;2023-07-08T03:34:39;19.60;99.90
20732;DHT22;10527;52.124;5.196;2023-07-08T03:37:06;19.40;99.90
20732;DHT22;10527;52.124;5.196;2023-07-08T03:39:33;19.50;99.90
20732;DHT22;10527;52.124;5.196;2023-07-08T03:42:01;19.50;99.90
20732;DHT22;10527;52.124;5.196;2023-07-08T03:44:30;19.50;99.90
20732;DHT22;10527;52.124;5.196;2023-07-08T03:46:57;19.50;99.90
20732;DHT22;10527;52.124;5.196;2023-07-08T03:49:24;19.50;99.90
20732;DHT22;10527;52.124;5.196;2023-07-08T03:51:52;19.50;99.90
20732;DHT22;10527;52.124;5.196;2023-07-08T03:54:22;19.50;99.90
20732;DHT22;10527;52.124;5.196;2023-07-08T03:56:52;19.50;99.90
20732;DHT22;10527;52.124;5.196;2023-07-08T03:59:19;19.50;99.90
20732;DHT22;10527;52.124;5.196;2023-07-08T04:01:46;19.50;99.90
20732;DHT22;10527;52.124;5.196;2023-07-08T04:04:15;19.40;99.90
20732;DHT22;10527;52.124;5.196;2023-07-08T04:06:43;19.50;99.90
20732;DHT22;10527;52.124;5.196;2023-07-08T04:09:13;19.50;99.90
20732;DHT22;10527;52.124;5.196;2023-07-08T04:11:39;19.50;99.90
20732;DHT22;10527;52.124;5.196;2023-07-08T04:14:08;19.40;99.90
20732;DHT22;10527;52.124;5.196;2023-07-08T04:16:46;19.50;99.90
20732;DHT22;10527;52.124;5.196;2023-07-08T04:19:19;19.50;99.90
20732;DHT22;10527;52.124;5.196;2023-07-08T04:21:46;19.40;99.90
20732;DHT22;10527;52.124;5.196;2023-07-08T04:24:16;19.50;99.90
20732;DHT22;10527;52.124;5.196;2023-07-08T04:26:46;19.50;99.90
20732;DHT22;10527;52.124;5.196;2023-07-08T04:29:20;19.50;99.90
20732;DHT22;10527;52.124;5.196;2023-07-08T04:31:50;19.50;99.90
20732;DHT22;10527;52.124;5.196;2023-07-08T04:34:17;19.50;99.90
20732;DHT22;10527;52.124;5.196;2023-07-08T04:36:45;19.50;99.90
20732;DHT22;10527;52.124;5.196;2023-07-08T04:39:12;19.50;99.90
20732;DHT22;10527;52.124;5.196;2023-07-08T04:41:42;19.50;99.90
20732;DHT22;10527;52.124;5.196;2023-07-08T04:44:11;19.50;99.90
20732;DHT22;10527;52.124;5.196;2023-07-08T04:46:42;19.50;99.90
20732;DHT22;10527;52.124;5.196;2023-07-08T04:49:12;19.50;99.90
20732;DHT22;10527;52.124;5.196;2023-07-08T04:51:40;19.50;99.90
20732;DHT22;10527;52.124;5.196;2023-07-08T04:54:08;19.50;99.90
20732;DHT22;10527;52.124;5.196;2023-07-08T04:59:04;19.50;99.90
20732;DHT22;10527;52.124;5.196;2023-07-08T05:01:32;19.50;99.90
20732;DHT22;10527;52.124;5.196;2023-07-08T05:03:59;19.50;99.90
20732;DHT22;10527;52.124;5.196;2023-07-08T05:06:28;19.50;99.90
20732;DHT22;10527;52.124;5.196;2023-07-08T05:08:55;19.50;99.90
20732;DHT22;10527;52.124;5.196;2023-07-08T05:11:22;19.50;99.90
20732;DHT22;10527;52.124;5.196;2023-07-08T05:13:49;19.60;99.90
20732;DHT22;10527;52.124;5.196;2023-07-08T05:16:18;19.60;99.90
20732;DHT22;10527;52.124;5.196;2023-07-08T05:18:45;19.60;99.90
20732;DHT22;10527;52.124;5.196;2023-07-08T05:21:18;19.70;99.90
20732;DHT22;10527;52.124;5.196;2023-07-08T05:23:47;19.70;99.90
20732;DHT22;10527;52.124;5.196;2023-07-08T05:26:18;19.60;99.90
20732;DHT22;10527;52.124;5.196;2023-07-08T05:28:45;19.70;99.90
20732;DHT22;10527;52.124;5.196;2023-07-08T05:31:12;19.60;99.90
20732;DHT22;10527;52.124;5.196;2023-07-08T05:33:39;19.70;99.90
20732;DHT22;10527;52.124;5.196;2023-07-08T05:36:06;19.80;99.90
20732;DHT22;10527;52.124;5.196;2023-07-08T05:38:34;19.70;99.90
20732;DHT22;10527;52.124;5.196;2023-07-08T05:41:01;19.80;99.90
20732;DHT22;10527;52.124;5.196;2023-07-08T05:43:28;19.80;99.90
20732;DHT22;10527;52.124;5.196;2023-07-08T05:46:00;19.80;99.90
20732;DHT22;10527;52.124;5.196;2023-07-08T05:48:38;19.90;99.90
20732;DHT22;10527;52.124;5.196;2023-07-08T05:51:05;19.80;99.90
20732;DHT22;10527;52.124;5.196;2023-07-08T05:53:32;19.90;99.90
20732;DHT22;10527;52.124;5.196;2023-07-08T05:55:58;20.00;99.90
20732;DHT22;10527;52.124;5.196;2023-07-08T05:58:25;20.00;99.90
20732;DHT22;10527;52.124;5.196;2023-07-08T06:00:57;20.00;99.90
20732;DHT22;10527;52.124;5.196;2023-07-08T06:03:25;20.10;99.90
20732;DHT22;10527;52.124;5.196;2023-07-08T06:05:53;20.10;99.90
20732;DHT22;10527;52.124;5.196;2023-07-08T06:08:21;20.10;99.90
20732;DHT22;10527;52.124;5.196;2023-07-08T06:10:49;20.10;99.90
20732;DHT22;10527;52.124;5.196;2023-07-08T06:13:16;20.20;99.90
20732;DHT22;10527;52.124;5.196;2023-07-08T06:15:43;20.20;99.90
20732;DHT22;10527;52.124;5.196;2023-07-08T06:18:10;20.20;99.90
20732;DHT22;10527;52.124;5.196;2023-07-08T06:20:37;20.30;99.90
20732;DHT22;10527;52.124;5.196;2023-07-08T06:23:05;20.30;99.90
20732;DHT22;10527;52.124;5.196;2023-07-08T06:25:32;20.40;99.90
20732;DHT22;10527;52.124;5.196;2023-07-08T06:27:59;20.50;99.90
20732;DHT22;10527;52.124;5.196;2023-07-08T06:30:26;20.40;99.90
20732;DHT22;10527;52.124;5.196;2023-07-08T06:32:55;20.50;99.90
20732;DHT22;10527;52.124;5.196;2023-07-08T06:35:26;20.50;99.90
20732;DHT22;10527;52.124;5.196;2023-07-08T06:37:53;20.50;99.90
20732;DHT22;10527;52.124;5.196;2023-07-08T06:40:20;20.60;99.90
20732;DHT22;10527;52.124;5.196;2023-07-08T06:42:47;20.70;99.90
20732;DHT22;10527;52.124;5.196;2023-07-08T06:45:14;20.70;99.90
20732;DHT22;10527;52.124;5.196;2023-07-08T06:47:41;20.70;99.90
20732;DHT22;10527;52.124;5.196;2023-07-08T06:50:09;20.80;99.90
20732;DHT22;10527;52.124;5.196;2023-07-08T06:52:36;20.90;99.90
20732;DHT22;10527;52.124;5.196;2023-07-08T06:55:07;20.90;99.90
20732;DHT22;10527;52.124;5.196;2023-07-08T06:57:36;21.00;99.90
20732;DHT22;10527;52.124;5.196;2023-07-08T07:00:09;21.00;99.90
20732;DHT22;10527;52.124;5.196;2023-07-08T07:02:38;21.10;99.90
20732;DHT22;10527;52.124;5.196;2023-07-08T07:05:05;21.10;99.90
20732;DHT22;10527;52.124;5.196;2023-07-08T07:07:33;21.20;99.90
20732;DHT22;10527;52.124;5.196;2023-07-08T07:10:01;21.30;99.90
20732;DHT22;10527;52.124;5.196;2023-07-08T07:12:29;21.30;99.90
20732;DHT22;10527;52.124;5.196;2023-07-08T07:14:56;21.40;99.90
20732;DHT22;10527;52.124;5.196;2023-07-08T07:17:24;21.40;99.90
20732;DHT22;10527;52.124;5.196;2023-07-08T07:19:53;21.50;99.90
20732;DHT22;10527;52.124;5.196;2023-07-08T07:22:21;21.60;99.90
20732;DHT22;10527;52.124;5.196;2023-07-08T07:24:50;21.70;99.90
20732;DHT22;10527;52.124;5.196;2023-07-08T07:27:17;21.70;99.90
20732;DHT22;10527;52.124;5.196;2023-07-08T07:29:49;21.80;99.90
20732;DHT22;10527;52.124;5.196;2023-07-08T07:32:18;21.80;99.90
20732;DHT22;10527;52.124;5.196;2023-07-08T07:34:50;21.90;99.90
20732;DHT22;10527;52.124;5.196;2023-07-08T07:37:19;22.00;99.90
20732;DHT22;10527;52.124;5.196;2023-07-08T07:39:47;22.10;99.90
20732;DHT22;10527;52.124;5.196;2023-07-08T07:42:16;22.10;99.90
20732;DHT22;10527;52.124;5.196;2023-07-08T07:44:45;22.20;99.90
20732;DHT22;10527;52.124;5.196;2023-07-08T07:47:13;22.50;99.90
20732;DHT22;10527;52.124;5.196;2023-07-08T07:49:40;22.80;99.90
20732;DHT22;10527;52.124;5.196;2023-07-08T07:52:07;23.20;99.90
20732;DHT22;10527;52.124;5.196;2023-07-08T07:54:38;23.60;99.90
20732;DHT22;10527;52.124;5.196;2023-07-08T07:57:05;23.90;99.90
20732;DHT22;10527;52.124;5.196;2023-07-08T07:59:33;24.20;99.90
20732;DHT22;10527;52.124;5.196;2023-07-08T08:01:59;24.30;99.90
20732;DHT22;10527;52.124;5.196;2023-07-08T08:04:26;24.50;99.90
20732;DHT22;10527;52.124;5.196;2023-07-08T08:06:53;24.80;99.90
20732;DHT22;10527;52.124;5.196;2023-07-08T08:09:20;25.10;99.90
20732;DHT22;10527;52.124;5.196;2023-07-08T08:11:47;25.30;99.90
20732;DHT22;10527;52.124;5.196;2023-07-08T08:14:14;25.50;99.90
20732;DHT22;10527;52.124;5.196;2023-07-08T08:16:41;25.90;99.90
20732;DHT22;10527;52.124;5.196;2023-07-08T08:19:08;26.20;99.90
20732;DHT22;10527;52.124;5.196;2023-07-08T08:21:36;26.30;99.90
20732;DHT22;10527;52.124;5.196;2023-07-08T08:24:03;26.50;99.90
20732;DHT22;10527;52.124;5.196;2023-07-08T08:26:30;26.60;99.90
20732;DHT22;10527;52.124;5.196;2023-07-08T08:28:58;27.00;99.90
20732;DHT22;10527;52.124;5.196;2023-07-08T08:31:25;27.10;99.90
20732;DHT22;10527;52.124;5.196;2023-07-08T08:33:52;27.20;99.90
20732;DHT22;10527;52.124;5.196;2023-07-08T08:36:19;27.30;99.90
20732;DHT22;10527;52.124;5.196;2023-07-08T08:38:47;27.70;99.90
20732;DHT22;10527;52.124;5.196;2023-07-08T08:41:32;28.00;99.90
20732;DHT22;10527;52.124;5.196;2023-07-08T08:44:02;28.10;99.90
20732;DHT22;10527;52.124;5.196;2023-07-08T08:46:52;28.00;99.90
20732;DHT22;10527;52.124;5.196;2023-07-08T08:49:57;28.40;99.90
20732;DHT22;10527;52.124;5.196;2023-07-08T08:52:46;28.60;99.90
20732;DHT22;10527;52.124;5.196;2023-07-08T08:55:14;28.50;99.90
20732;DHT22;10527;52.124;5.196;2023-07-08T09:01:16;28.90;99.90
20732;DHT22;10527;52.124;5.196;2023-07-08T09:04:03;29.00;99.90
20732;DHT22;10527;52.124;5.196;2023-07-08T09:06:35;29.30;99.90
20732;DHT22;10527;52.124;5.196;2023-07-08T09:09:21;29.10;99.90
20732;DHT22;10527;52.124;5.196;2023-07-08T09:12:03;29.20;99.90
20732;DHT22;10527;52.124;5.196;2023-07-08T09:14:34;29.40;99.90
20732;DHT22;10527;52.124;5.196;2023-07-08T09:17:30;29.60;99.90
20732;DHT22;10527;52.124;5.196;2023-07-08T09:22:56;29.60;99.90
20732;DHT22;10527;52.124;5.196;2023-07-08T09:25:33;29.70;99.90
20732;DHT22;10527;52.124;5.196;2023-07-08T09:28:03;29.50;99.90
20732;DHT22;10527;52.124;5.196;2023-07-08T09:30:30;29.70;99.90
20732;DHT22;10527;52.124;5.196;2023-07-08T09:33:02;29.80;99.90
20732;DHT22;10527;52.124;5.196;2023-07-08T09:35:45;30.20;99.90
20732;DHT22;10527;52.124;5.196;2023-07-08T09:38:22;30.30;99.90
20732;DHT22;10527;52.124;5.196;2023-07-08T09:40:53;30.20;99.90
20732;DHT22;10527;52.124;5.196;2023-07-08T09:43:50;30.30;99.90
20732;DHT22;10527;52.124;5.196;2023-07-08T09:46:17;30.40;99.90
20732;DHT22;10527;52.124;5.196;2023-07-08T09:48:46;30.90;99.90
20732;DHT22;10527;52.124;5.196;2023-07-08T09:51:15;30.90;99.90
20732;DHT22;10527;52.124;5.196;2023-07-08T09:53:42;30.80;99.90
20732;DHT22;10527;52.124;5.196;2023-07-08T09:56:10;30.90;99.90
20732;DHT22;10527;52.124;5.196;2023-07-08T09:58:41;30.90;99.90
20732;DHT22;10527;52.124;5.196;2023-07-08T10:01:13;31.20;99.90
20732;DHT22;10527;52.124;5.196;2023-07-08T10:03:49;31.10;99.90
20732;DHT22;10527;52.124;5.196;2023-07-08T10:06:26;31.00;99.90
20732;DHT22;10527;52.124;5.196;2023-07-08T10:09:00;31.10;99.90
20732;DHT22;10527;52.124;5.196;2023-07-08T10:11:41;31.30;99.90
20732;DHT22;10527;52.124;5.196;2023-07-08T10:14:32;31.20;99.90
20732;DHT22;10527;52.124;5.196;2023-07-08T10:17:10;31.30;99.90
20732;DHT22;10527;52.124;5.196;2023-07-08T10:19:41;31.40;99.90
20732;DHT22;10527;52.124;5.196;2023-07-08T10:28:45;31.70;99.90
20732;DHT22;10527;52.124;5.196;2023-07-08T10:34:03;31.70;99.90
20732;DHT22;10527;52.124;5.196;2023-07-08T10:45:12;32.00;99.90
20732;DHT22;10527;52.124;5.196;2023-07-08T10:51:05;31.30;99.90
20732;DHT22;10527;52.124;5.196;2023-07-08T10:56:14;31.20;99.90
20732;DHT22;10527;52.124;5.196;2023-07-08T10:58:58;31.40;99.90
20732;DHT22;10527;52.124;5.196;2023-07-08T11:07:30;32.20;99.90
20732;DHT22;10527;52.124;5.196;2023-07-08T11:10:35;32.40;99.90
20732;DHT22;10527;52.124;5.196;2023-07-08T11:13:12;32.50;99.90
20732;DHT22;10527;52.124;5.196;2023-07-08T11:16:32;32.50;99.90
20732;DHT22;10527;52.124;5.196;2023-07-08T11:19:16;32.40;99.90
20732;DHT22;10527;52.124;5.196;2023-07-08T11:21:46;32.60;99.90
20732;DHT22;10527;52.124;5.196;2023-07-08T11:29:46;32.70;99.90
20732;DHT22;10527;52.124;5.196;2023-07-08T11:32:35;32.80;99.90
20732;DHT22;10527;52.124;5.196;2023-07-08T11:35:05;32.80;99.90
20732;DHT22;10527;52.124;5.196;2023-07-08T11:38:14;32.80;99.90
20732;DHT22;10527;52.124;5.196;2023-07-08T11:41:12;32.70;99.90
20732;DHT22;10527;52.124;5.196;2023-07-08T11:43:46;32.60;99.90
20732;DHT22;10527;52.124;5.196;2023-07-08T11:46:23;32.60;99.90
20732;DHT22;10527;52.124;5.196;2023-07-08T11:48:53;32.70;99.90
20732;DHT22;10527;52.124;5.196;2023-07-08T11:51:31;32.80;99.90
20732;DHT22;10527;52.124;5.196;2023-07-08T11:59:32;32.60;99.90
20732;DHT22;10527;52.124;5.196;2023-07-08T12:02:11;32.60;99.90
20732;DHT22;10527;52.124;5.196;2023-07-08T12:05:32;32.60;99.90
20732;DHT22;10527;52.124;5.196;2023-07-08T12:08:03;32.60;99.90
20732;DHT22;10527;52.124;5.196;2023-07-08T12:10:48;32.90;99.90
20732;DHT22;10527;52.124;5.196;2023-07-08T12:13:20;33.10;99.90
20732;DHT22;10527;52.124;5.196;2023-07-08T12:15:50;33.30;99.90
20732;DHT22;10527;52.124;5.196;2023-07-08T12:18:24;33.30;99.90
20732;DHT22;10527;52.124;5.196;2023-07-08T12:20:56;33.40;99.90
20732;DHT22;10527;52.124;5.196;2023-07-08T12:23:26;33.40;99.90
20732;DHT22;10527;52.124;5.196;2023-07-08T12:25:55;33.50;99.90
20732;DHT22;10527;52.124;5.196;2023-07-08T12:28:24;33.50;99.90
20732;DHT22;10527;52.124;5.196;2023-07-08T12:30:52;33.50;99.90
20732;DHT22;10527;52.124;5.196;2023-07-08T12:33:32;33.50;99.90
20732;DHT22;10527;52.124;5.196;2023-07-08T12:36:01;33.30;99.90
20732;DHT22;10527;52.124;5.196;2023-07-08T12:38:41;33.20;99.90
20732;DHT22;10527;52.124;5.196;2023-07-08T12:43:49;33.20;99.90
20732;DHT22;10527;52.124;5.196;2023-07-08T12:46:19;33.50;99.90
20732;DHT22;10527;52.124;5.196;2023-07-08T12:48:48;33.60;99.90
20732;DHT22;10527;52.124;5.196;2023-07-08T12:51:17;33.70;99.90
20732;DHT22;10527;52.124;5.196;2023-07-08T12:53:52;33.80;99.90
20732;DHT22;10527;52.124;5.196;2023-07-08T12:56:23;33.80;99.90
20732;DHT22;10527;52.124;5.196;2023-07-08T12:58:54;33.80;99.90
20732;DHT22;10527;52.124;5.196;2023-07-08T13:01:28;33.80;99.90
20732;DHT22;10527;52.124;5.196;2023-07-08T13:04:01;33.80;99.90
20732;DHT22;10527;52.124;5.196;2023-07-08T13:06:33;33.80;99.90
20732;DHT22;10527;52.124;5.196;2023-07-08T13:11:54;34.00;99.90
20732;DHT22;10527;52.124;5.196;2023-07-08T13:14:24;34.10;99.90
20732;DHT22;10527;52.124;5.196;2023-07-08T13:16:52;34.10;99.90
20732;DHT22;10527;52.124;5.196;2023-07-08T13:19:22;34.20;99.90
20732;DHT22;10527;52.124;5.196;2023-07-08T13:21:50;34.20;99.90
20732;DHT22;10527;52.124;5.196;2023-07-08T13:24:18;34.10;99.90
20732;DHT22;10527;52.124;5.196;2023-07-08T13:26:48;34.30;99.90
20732;DHT22;10527;52.124;5.196;2023-07-08T13:29:18;34.20;99.90
20732;DHT22;10527;52.124;5.196;2023-07-08T13:31:55;34.40;99.90
20732;DHT22;10527;52.124;5.196;2023-07-08T13:34:28;34.40;99.90
20732;DHT22;10527;52.124;5.196;2023-07-08T13:36:55;34.40;99.90
20732;DHT22;10527;52.124;5.196;2023-07-08T13:39:31;34.40;99.90
20732;DHT22;10527;52.124;5.196;2023-07-08T13:42:03;34.50;99.90
20732;DHT22;10527;52.124;5.196;2023-07-08T13:44:34;34.40;99.90
20732;DHT22;10527;52.124;5.196;2023-07-08T13:47:39;34.40;99.90
20732;DHT22;10527;52.124;5.196;2023-07-08T13:50:19;34.50;99.90
20732;DHT22;10527;52.124;5.196;2023-07-08T13:52:57;34.60;99.90
20732;DHT22;10527;52.124;5.196;2023-07-08T13:55:24;34.70;99.90
20732;DHT22;10527;52.124;5.196;2023-07-08T13:58:00;34.70;99.90
20732;DHT22;10527;52.124;5.196;2023-07-08T14:00:29;34.70;99.90
20732;DHT22;10527;52.124;5.196;2023-07-08T14:02:58;34.70;99.90
20732;DHT22;10527;52.124;5.196;2023-07-08T14:05:26;34.60;99.90
20732;DHT22;10527;52.124;5.196;2023-07-08T14:07:53;34.60;99.90
20732;DHT22;10527;52.124;5.196;2023-07-08T14:10:22;34.70;99.90
20732;DHT22;10527;52.124;5.196;2023-07-08T14:12:50;34.80;99.90
20732;DHT22;10527;52.124;5.196;2023-07-08T14:15:18;34.80;99.90
20732;DHT22;10527;52.124;5.196;2023-07-08T14:17:46;34.90;99.90
20732;DHT22;10527;52.124;5.196;2023-07-08T14:20:16;34.70;99.90
20732;DHT22;10527;52.124;5.196;2023-07-08T14:22:44;34.70;99.90
20732;DHT22;10527;52.124;5.196;2023-07-08T14:25:15;34.80;99.90
20732;DHT22;10527;52.124;5.196;2023-07-08T14:27:46;34.80;99.90
20732;DHT22;10527;52.124;5.196;2023-07-08T14:30:17;34.70;99.90
20732;DHT22;10527;52.124;5.196;2023-07-08T14:32:46;34.70;99.90
20732;DHT22;10527;52.124;5.196;2023-07-08T14:35:19;34.80;99.90
20732;DHT22;10527;52.124;5.196;2023-07-08T14:37:53;34.70;99.90
20732;DHT22;10527;52.124;5.196;2023-07-08T14:40:41;34.60;99.90
20732;DHT22;10527;52.124;5.196;2023-07-08T14:43:27;34.50;99.90
20732;DHT22;10527;52.124;5.196;2023-07-08T14:46:03;34.40;99.90
20732;DHT22;10527;52.124;5.196;2023-07-08T14:48:33;34.50;99.90
20732;DHT22;10527;52.124;5.196;2023-07-08T14:51:03;34.40;99.90
20732;DHT22;10527;52.124;5.196;2023-07-08T14:53:33;34.30;99.90
20732;DHT22;10527;52.124;5.196;2023-07-08T14:56:05;34.20;99.90
20732;DHT22;10527;52.124;5.196;2023-07-08T14:58:42;34.20;99.90
20732;DHT22;10527;52.124;5.196;2023-07-08T15:01:20;34.20;99.90
20732;DHT22;10527;52.124;5.196;2023-07-08T15:03:48;34.30;99.90
20732;DHT22;10527;52.124;5.196;2023-07-08T15:06:19;34.20;99.90
20732;DHT22;10527;52.124;5.196;2023-07-08T15:08:47;34.30;99.90
20732;DHT22;10527;52.124;5.196;2023-07-08T15:11:14;34.40;99.90
20732;DHT22;10527;52.124;5.196;2023-07-08T15:13:43;34.60;99.90
20732;DHT22;10527;52.124;5.196;2023-07-08T15:16:14;34.70;99.90
20732;DHT22;10527;52.124;5.196;2023-07-08T15:18:43;34.80;99.90
20732;DHT22;10527;52.124;5.196;2023-07-08T15:21:15;34.90;99.90
20732;DHT22;10527;52.124;5.196;2023-07-08T15:23:42;35.00;99.90
20732;DHT22;10527;52.124;5.196;2023-07-08T15:26:11;35.00;99.90
20732;DHT22;10527;52.124;5.196;2023-07-08T15:28:40;35.20;99.90
20732;DHT22;10527;52.124;5.196;2023-07-08T15:31:20;35.00;99.90
20732;DHT22;10527;52.124;5.196;2023-07-08T15:33:52;35.00;99.90
20732;DHT22;10527;52.124;5.196;2023-07-08T15:36:20;35.10;99.90
20732;DHT22;10527;52.124;5.196;2023-07-08T15:38:47;35.00;99.90
20732;DHT22;10527;52.124;5.196;2023-07-08T15:41:32;34.80;99.90
20732;DHT22;10527;52.124;5.196;2023-07-08T15:44:00;34.70;99.90
20732;DHT22;10527;52.124;5.196;2023-07-08T15:46:32;34.60;99.90
20732;DHT22;10527;52.124;5.196;2023-07-08T15:49:21;34.40;99.90
20732;DHT22;10527;52.124;5.196;2023-07-08T15:52:02;34.30;99.90
20732;DHT22;10527;52.124;5.196;2023-07-08T15:54:29;34.20;99.90
20732;DHT22;10527;52.124;5.196;2023-07-08T15:56:56;34.20;99.90
20732;DHT22;10527;52.124;5.196;2023-07-08T15:59:28;34.10;99.90
20732;DHT22;10527;52.124;5.196;2023-07-08T16:02:18;34.10;99.90
20732;DHT22;10527;52.124;5.196;2023-07-08T16:04:52;33.90;99.90
20732;DHT22;10527;52.124;5.196;2023-07-08T16:07:19;33.90;99.90
20732;DHT22;10527;52.124;5.196;2023-07-08T16:09:46;33.90;99.90
20732;DHT22;10527;52.124;5.196;2023-07-08T16:12:17;33.80;99.90
20732;DHT22;10527;52.124;5.196;2023-07-08T16:14:48;33.80;99.90
20732;DHT22;10527;52.124;5.196;2023-07-08T16:17:15;33.70;99.90
20732;DHT22;10527;52.124;5.196;2023-07-08T16:19:42;33.80;99.90
20732;DHT22;10527;52.124;5.196;2023-07-08T16:22:09;33.70;99.90
20732;DHT22;10527;52.124;5.196;2023-07-08T16:24:37;33.80;99.90
20732;DHT22;10527;52.124;5.196;2023-07-08T16:27:05;33.80;99.90
20732;DHT22;10527;52.124;5.196;2023-07-08T16:29:32;33.90;99.90
20732;DHT22;10527;52.124;5.196;2023-07-08T16:32:00;33.80;99.90
20732;DHT22;10527;52.124;5.196;2023-07-08T16:34:27;33.80;99.90
20732;DHT22;10527;52.124;5.196;2023-07-08T16:36:53;33.80;99.90
20732;DHT22;10527;52.124;5.196;2023-07-08T16:39:20;33.80;99.90
20732;DHT22;10527;52.124;5.196;2023-07-08T16:41:47;33.80;99.90
20732;DHT22;10527;52.124;5.196;2023-07-08T16:44:21;33.90;99.90
20732;DHT22;10527;52.124;5.196;2023-07-08T16:46:49;33.90;99.90
20732;DHT22;10527;52.124;5.196;2023-07-08T16:49:16;33.90;99.90
20732;DHT22;10527;52.124;5.196;2023-07-08T16:51:43;33.90;99.90
20732;DHT22;10527;52.124;5.196;2023-07-08T16:54:11;34.00;99.90
20732;DHT22;10527;52.124;5.196;2023-07-08T16:56:41;34.10;99.90
20732;DHT22;10527;52.124;5.196;2023-07-08T16:59:14;34.10;99.90